sensor_id;sensor_type;location;lat;lon;timestamp;P1;durP1;ratioP1;P2;durP2;ratioP2
51838;SDS011;37886;53.174;6.368;2022-07-30T00:02:05;11.63;;;8.95;;
51838;SDS011;37886;53.174;6.368;2022-07-30T00:04:30;9.88;;;7.70;;
51838;SDS011;37886;53.174;6.368;2022-07-30T00:06:57;11.45;;;8.27;;
51838;SDS011;37886;53.174;6.368;2022-07-30T00:09:23;15.35;;;9.38;;
51838;SDS011;37886;53.174;6.368;2022-07-30T00:11:48;19.38;;;10.65;;
51838;SDS011;37886;53.174;6.368;2022-07-30T00:14:14;13.32;;;9.23;;
51838;SDS011;37886;53.174;6.368;2022-07-30T00:16:40;13.32;;;10.00;;
51838;SDS011;37886;53.174;6.368;2022-07-30T00:19:06;15.68;;;9.75;;
51838;SDS011;37886;53.174;6.368;2022-07-30T00:21:32;15.73;;;9.27;;
51838;SDS011;37886;53.174;6.368;2022-07-30T00:23:57;14.98;;;9.57;;
51838;SDS011;37886;53.174;6.368;2022-07-30T00:26:23;18.50;;;10.75;;
51838;SDS011;37886;53.174;6.368;2022-07-30T00:28:49;14.98;;;10.35;;
51838;SDS011;37886;53.174;6.368;2022-07-30T00:31:14;16.73;;;9.93;;
51838;SDS011;37886;53.174;6.368;2022-07-30T00:33:40;16.98;;;9.82;;
51838;SDS011;37886;53.174;6.368;2022-07-30T00:36:06;11.75;;;9.40;;
51838;SDS011;37886;53.174;6.368;2022-07-30T00:38:31;11.65;;;9.80;;
51838;SDS011;37886;53.174;6.368;2022-07-30T00:40:58;15.45;;;10.15;;
51838;SDS011;37886;53.174;6.368;2022-07-30T00:43:24;14.27;;;11.05;;
51838;SDS011;37886;53.174;6.368;2022-07-30T00:45:50;18.52;;;10.25;;
51838;SDS011;37886;53.174;6.368;2022-07-30T00:48:15;14.05;;;9.60;;
51838;SDS011;37886;53.174;6.368;2022-07-30T00:50:41;15.52;;;11.40;;
51838;SDS011;37886;53.174;6.368;2022-07-30T00:53:07;16.25;;;10.68;;
51838;SDS011;37886;53.174;6.368;2022-07-30T00:55:33;14.48;;;10.45;;
51838;SDS011;37886;53.174;6.368;2022-07-30T00:58:00;14.07;;;10.25;;
51838;SDS011;37886;53.174;6.368;2022-07-30T01:00:26;18.60;;;10.35;;
51838;SDS011;37886;53.174;6.368;2022-07-30T01:02:52;14.45;;;11.73;;
51838;SDS011;37886;53.174;6.368;2022-07-30T01:05:18;15.00;;;10.90;;
51838;SDS011;37886;53.174;6.368;2022-07-30T01:07:44;17.55;;;11.38;;
51838;SDS011;37886;53.174;6.368;2022-07-30T01:10:10;17.65;;;11.40;;
51838;SDS011;37886;53.174;6.368;2022-07-30T01:12:39;15.75;;;10.68;;
51838;SDS011;37886;53.174;6.368;2022-07-30T01:15:06;13.20;;;10.27;;
51838;SDS011;37886;53.174;6.368;2022-07-30T01:17:35;11.98;;;10.15;;
51838;SDS011;37886;53.174;6.368;2022-07-30T01:20:04;15.38;;;11.02;;
51838;SDS011;37886;53.174;6.368;2022-07-30T01:28:11;20.77;;;12.20;;
51838;SDS011;37886;53.174;6.368;2022-07-30T01:30:40;14.63;;;10.85;;
51838;SDS011;37886;53.174;6.368;2022-07-30T01:33:09;16.48;;;11.80;;
51838;SDS011;37886;53.174;6.368;2022-07-30T01:35:38;13.67;;;11.30;;
51838;SDS011;37886;53.174;6.368;2022-07-30T01:38:05;15.63;;;10.93;;
51838;SDS011;37886;53.174;6.368;2022-07-30T01:40:33;16.02;;;11.40;;
51838;SDS011;37886;53.174;6.368;2022-07-30T01:43:00;14.75;;;11.27;;
51838;SDS011;37886;53.174;6.368;2022-07-30T01:45:28;19.63;;;11.60;;
51838;SDS011;37886;53.174;6.368;2022-07-30T01:47:56;13.13;;;11.55;;
51838;SDS011;37886;53.174;6.368;2022-07-30T01:50:24;17.40;;;11.82;;
51838;SDS011;37886;53.174;6.368;2022-07-30T01:52:51;15.18;;;12.52;;
51838;SDS011;37886;53.174;6.368;2022-07-30T01:55:24;17.33;;;12.00;;
51838;SDS011;37886;53.174;6.368;2022-07-30T01:57:54;18.75;;;12.52;;
51838;SDS011;37886;53.174;6.368;2022-07-30T02:00:22;21.13;;;15.65;;
51838;SDS011;37886;53.174;6.368;2022-07-30T02:02:50;18.60;;;14.23;;
51838;SDS011;37886;53.174;6.368;2022-07-30T02:05:16;18.13;;;13.30;;
51838;SDS011;37886;53.174;6.368;2022-07-30T02:07:51;20.85;;;14.27;;
51838;SDS011;37886;53.174;6.368;2022-07-30T02:10:30;16.38;;;13.75;;
51838;SDS011;37886;53.174;6.368;2022-07-30T02:13:01;19.35;;;13.82;;
51838;SDS011;37886;53.174;6.368;2022-07-30T02:18:38;17.08;;;15.27;;
51838;SDS011;37886;53.174;6.368;2022-07-30T02:21:11;20.60;;;14.95;;
51838;SDS011;37886;53.174;6.368;2022-07-30T02:23:38;18.00;;;15.60;;
51838;SDS011;37886;53.174;6.368;2022-07-30T02:26:07;24.08;;;16.85;;
51838;SDS011;37886;53.174;6.368;2022-07-30T02:28:38;24.95;;;18.95;;
51838;SDS011;37886;53.174;6.368;2022-07-30T02:31:06;23.10;;;17.73;;
51838;SDS011;37886;53.174;6.368;2022-07-30T02:33:35;27.23;;;17.63;;
51838;SDS011;37886;53.174;6.368;2022-07-30T02:36:05;26.77;;;19.67;;
51838;SDS011;37886;53.174;6.368;2022-07-30T02:38:31;25.17;;;19.90;;
51838;SDS011;37886;53.174;6.368;2022-07-30T02:40:59;24.02;;;19.50;;
51838;SDS011;37886;53.174;6.368;2022-07-30T02:43:26;24.48;;;19.60;;
51838;SDS011;37886;53.174;6.368;2022-07-30T02:45:54;23.23;;;18.45;;
51838;SDS011;37886;53.174;6.368;2022-07-30T02:48:22;26.20;;;19.80;;
51838;SDS011;37886;53.174;6.368;2022-07-30T02:50:52;26.77;;;20.52;;
51838;SDS011;37886;53.174;6.368;2022-07-30T02:53:19;27.88;;;18.92;;
51838;SDS011;37886;53.174;6.368;2022-07-30T02:55:48;23.55;;;18.33;;
51838;SDS011;37886;53.174;6.368;2022-07-30T02:58:18;21.38;;;17.13;;
51838;SDS011;37886;53.174;6.368;2022-07-30T03:00:48;27.08;;;18.00;;
51838;SDS011;37886;53.174;6.368;2022-07-30T03:03:16;27.92;;;18.30;;
51838;SDS011;37886;53.174;6.368;2022-07-30T03:05:43;21.27;;;18.30;;
51838;SDS011;37886;53.174;6.368;2022-07-30T03:08:11;27.65;;;19.30;;
51838;SDS011;37886;53.174;6.368;2022-07-30T03:10:40;25.88;;;18.67;;
51838;SDS011;37886;53.174;6.368;2022-07-30T03:13:09;24.92;;;19.77;;
51838;SDS011;37886;53.174;6.368;2022-07-30T03:15:36;29.88;;;20.20;;
51838;SDS011;37886;53.174;6.368;2022-07-30T03:18:09;26.40;;;21.05;;
51838;SDS011;37886;53.174;6.368;2022-07-30T03:20:38;27.02;;;20.52;;
51838;SDS011;37886;53.174;6.368;2022-07-30T03:23:04;24.90;;;21.40;;
51838;SDS011;37886;53.174;6.368;2022-07-30T03:25:32;27.63;;;20.90;;
51838;SDS011;37886;53.174;6.368;2022-07-30T03:27:59;27.55;;;22.83;;
51838;SDS011;37886;53.174;6.368;2022-07-30T03:30:27;27.48;;;22.23;;
51838;SDS011;37886;53.174;6.368;2022-07-30T03:32:54;28.25;;;23.05;;
51838;SDS011;37886;53.174;6.368;2022-07-30T03:35:21;32.67;;;22.23;;
51838;SDS011;37886;53.174;6.368;2022-07-30T03:37:51;32.20;;;23.80;;
51838;SDS011;37886;53.174;6.368;2022-07-30T03:40:18;25.67;;;21.08;;
51838;SDS011;37886;53.174;6.368;2022-07-30T03:42:45;24.13;;;18.83;;
51838;SDS011;37886;53.174;6.368;2022-07-30T03:45:11;30.83;;;21.30;;
51838;SDS011;37886;53.174;6.368;2022-07-30T03:47:38;28.02;;;22.13;;
51838;SDS011;37886;53.174;6.368;2022-07-30T03:50:06;30.33;;;23.00;;
51838;SDS011;37886;53.174;6.368;2022-07-30T03:52:33;29.10;;;22.20;;
51838;SDS011;37886;53.174;6.368;2022-07-30T03:54:59;31.33;;;22.75;;
51838;SDS011;37886;53.174;6.368;2022-07-30T03:57:26;34.95;;;24.63;;
51838;SDS011;37886;53.174;6.368;2022-07-30T03:59:52;34.42;;;23.02;;
51838;SDS011;37886;53.174;6.368;2022-07-30T04:02:18;36.78;;;23.38;;
51838;SDS011;37886;53.174;6.368;2022-07-30T04:04:44;31.35;;;23.40;;
51838;SDS011;37886;53.174;6.368;2022-07-30T04:07:10;27.13;;;22.70;;
51838;SDS011;37886;53.174;6.368;2022-07-30T04:09:35;35.88;;;24.88;;
51838;SDS011;37886;53.174;6.368;2022-07-30T04:12:01;28.50;;;22.58;;
51838;SDS011;37886;53.174;6.368;2022-07-30T04:14:36;28.02;;;22.92;;
51838;SDS011;37886;53.174;6.368;2022-07-30T04:19:48;26.13;;;23.15;;
51838;SDS011;37886;53.174;6.368;2022-07-30T04:22:27;25.25;;;21.63;;
51838;SDS011;37886;53.174;6.368;2022-07-30T04:24:56;31.33;;;21.48;;
51838;SDS011;37886;53.174;6.368;2022-07-30T04:27:23;32.28;;;24.98;;
51838;SDS011;37886;53.174;6.368;2022-07-30T04:29:53;30.25;;;25.30;;
51838;SDS011;37886;53.174;6.368;2022-07-30T04:32:19;31.80;;;23.95;;
51838;SDS011;37886;53.174;6.368;2022-07-30T04:34:46;26.52;;;21.33;;
51838;SDS011;37886;53.174;6.368;2022-07-30T04:37:14;35.25;;;24.48;;
51838;SDS011;37886;53.174;6.368;2022-07-30T04:42:09;26.02;;;21.88;;
51838;SDS011;37886;53.174;6.368;2022-07-30T04:44:35;29.80;;;22.15;;
51838;SDS011;37886;53.174;6.368;2022-07-30T04:47:01;33.08;;;23.25;;
51838;SDS011;37886;53.174;6.368;2022-07-30T04:49:27;27.63;;;21.10;;
51838;SDS011;37886;53.174;6.368;2022-07-30T04:51:53;27.92;;;22.98;;
51838;SDS011;37886;53.174;6.368;2022-07-30T04:54:20;27.98;;;21.98;;
51838;SDS011;37886;53.174;6.368;2022-07-30T04:56:48;28.58;;;24.00;;
51838;SDS011;37886;53.174;6.368;2022-07-30T04:59:17;27.27;;;23.00;;
51838;SDS011;37886;53.174;6.368;2022-07-30T05:01:45;26.30;;;22.80;;
51838;SDS011;37886;53.174;6.368;2022-07-30T05:04:14;25.08;;;22.33;;
51838;SDS011;37886;53.174;6.368;2022-07-30T05:06:41;24.27;;;21.60;;
51838;SDS011;37886;53.174;6.368;2022-07-30T05:09:08;24.00;;;19.60;;
51838;SDS011;37886;53.174;6.368;2022-07-30T05:11:36;24.48;;;21.02;;
51838;SDS011;37886;53.174;6.368;2022-07-30T05:14:01;24.77;;;20.20;;
51838;SDS011;37886;53.174;6.368;2022-07-30T05:16:27;32.53;;;21.27;;
51838;SDS011;37886;53.174;6.368;2022-07-30T05:18:53;22.48;;;19.27;;
51838;SDS011;37886;53.174;6.368;2022-07-30T05:21:19;21.65;;;18.80;;
51838;SDS011;37886;53.174;6.368;2022-07-30T05:23:45;23.02;;;18.70;;
51838;SDS011;37886;53.174;6.368;2022-07-30T05:26:11;22.42;;;19.00;;
51838;SDS011;37886;53.174;6.368;2022-07-30T05:28:36;20.13;;;17.25;;
51838;SDS011;37886;53.174;6.368;2022-07-30T05:31:02;20.45;;;17.55;;
51838;SDS011;37886;53.174;6.368;2022-07-30T05:33:27;18.10;;;15.00;;
51838;SDS011;37886;53.174;6.368;2022-07-30T05:35:53;19.77;;;16.05;;
51838;SDS011;37886;53.174;6.368;2022-07-30T05:38:19;18.35;;;14.93;;
51838;SDS011;37886;53.174;6.368;2022-07-30T05:40:45;22.30;;;15.30;;
51838;SDS011;37886;53.174;6.368;2022-07-30T05:43:11;17.00;;;15.25;;
51838;SDS011;37886;53.174;6.368;2022-07-30T05:45:37;21.25;;;14.38;;
51838;SDS011;37886;53.174;6.368;2022-07-30T05:48:03;17.90;;;14.65;;
51838;SDS011;37886;53.174;6.368;2022-07-30T05:50:29;19.23;;;15.35;;
51838;SDS011;37886;53.174;6.368;2022-07-30T05:52:54;20.23;;;15.77;;
51838;SDS011;37886;53.174;6.368;2022-07-30T05:55:22;18.23;;;15.00;;
51838;SDS011;37886;53.174;6.368;2022-07-30T05:57:48;20.15;;;13.13;;
51838;SDS011;37886;53.174;6.368;2022-07-30T06:00:13;17.08;;;13.00;;
51838;SDS011;37886;53.174;6.368;2022-07-30T06:02:40;22.50;;;14.20;;
51838;SDS011;37886;53.174;6.368;2022-07-30T06:05:06;18.20;;;13.55;;
51838;SDS011;37886;53.174;6.368;2022-07-30T06:07:32;21.77;;;14.13;;
51838;SDS011;37886;53.174;6.368;2022-07-30T06:09:58;23.05;;;14.30;;
51838;SDS011;37886;53.174;6.368;2022-07-30T06:12:29;18.95;;;13.60;;
51838;SDS011;37886;53.174;6.368;2022-07-30T06:14:55;15.95;;;13.63;;
51838;SDS011;37886;53.174;6.368;2022-07-30T06:17:21;17.05;;;13.27;;
51838;SDS011;37886;53.174;6.368;2022-07-30T06:19:47;21.02;;;13.23;;
51838;SDS011;37886;53.174;6.368;2022-07-30T06:22:13;20.58;;;13.30;;
51838;SDS011;37886;53.174;6.368;2022-07-30T06:24:38;20.65;;;14.05;;
51838;SDS011;37886;53.174;6.368;2022-07-30T06:27:04;21.85;;;14.10;;
51838;SDS011;37886;53.174;6.368;2022-07-30T06:29:30;21.45;;;13.63;;
51838;SDS011;37886;53.174;6.368;2022-07-30T06:31:56;23.00;;;14.05;;
51838;SDS011;37886;53.174;6.368;2022-07-30T06:34:21;19.20;;;12.57;;
51838;SDS011;37886;53.174;6.368;2022-07-30T06:36:47;21.40;;;13.70;;
51838;SDS011;37886;53.174;6.368;2022-07-30T06:39:13;15.23;;;12.00;;
51838;SDS011;37886;53.174;6.368;2022-07-30T06:41:39;20.52;;;13.20;;
51838;SDS011;37886;53.174;6.368;2022-07-30T06:44:05;24.52;;;13.00;;
51838;SDS011;37886;53.174;6.368;2022-07-30T06:46:31;23.92;;;11.77;;
51838;SDS011;37886;53.174;6.368;2022-07-30T06:48:57;18.73;;;12.00;;
51838;SDS011;37886;53.174;6.368;2022-07-30T06:51:22;21.92;;;11.93;;
51838;SDS011;37886;53.174;6.368;2022-07-30T06:53:48;22.75;;;12.43;;
51838;SDS011;37886;53.174;6.368;2022-07-30T06:56:14;20.15;;;11.43;;
51838;SDS011;37886;53.174;6.368;2022-07-30T06:58:40;18.52;;;11.52;;
51838;SDS011;37886;53.174;6.368;2022-07-30T07:01:05;25.02;;;12.35;;
51838;SDS011;37886;53.174;6.368;2022-07-30T07:03:31;20.75;;;12.05;;
51838;SDS011;37886;53.174;6.368;2022-07-30T07:05:57;19.92;;;10.35;;
51838;SDS011;37886;53.174;6.368;2022-07-30T07:08:22;22.92;;;11.90;;
51838;SDS011;37886;53.174;6.368;2022-07-30T07:10:48;24.30;;;11.07;;
51838;SDS011;37886;53.174;6.368;2022-07-30T07:13:14;19.25;;;10.20;;
51838;SDS011;37886;53.174;6.368;2022-07-30T07:15:40;21.52;;;10.27;;
51838;SDS011;37886;53.174;6.368;2022-07-30T07:18:06;14.68;;;9.43;;
51838;SDS011;37886;53.174;6.368;2022-07-30T07:20:32;17.17;;;9.82;;
51838;SDS011;37886;53.174;6.368;2022-07-30T07:22:59;19.17;;;9.70;;
51838;SDS011;37886;53.174;6.368;2022-07-30T07:25:25;18.95;;;9.85;;
51838;SDS011;37886;53.174;6.368;2022-07-30T07:27:51;19.90;;;9.65;;
51838;SDS011;37886;53.174;6.368;2022-07-30T07:30:17;20.40;;;9.20;;
51838;SDS011;37886;53.174;6.368;2022-07-30T07:32:43;16.63;;;8.70;;
51838;SDS011;37886;53.174;6.368;2022-07-30T07:35:09;17.33;;;9.52;;
51838;SDS011;37886;53.174;6.368;2022-07-30T07:37:35;12.60;;;8.20;;
51838;SDS011;37886;53.174;6.368;2022-07-30T07:40:01;14.15;;;8.25;;
51838;SDS011;37886;53.174;6.368;2022-07-30T07:42:27;17.98;;;9.30;;
51838;SDS011;37886;53.174;6.368;2022-07-30T07:44:53;15.38;;;7.85;;
51838;SDS011;37886;53.174;6.368;2022-07-30T07:47:18;14.93;;;7.20;;
51838;SDS011;37886;53.174;6.368;2022-07-30T07:49:44;17.33;;;7.22;;
51838;SDS011;37886;53.174;6.368;2022-07-30T07:52:09;17.38;;;7.20;;
51838;SDS011;37886;53.174;6.368;2022-07-30T07:54:35;13.15;;;6.80;;
51838;SDS011;37886;53.174;6.368;2022-07-30T07:57:01;11.77;;;6.53;;
51838;SDS011;37886;53.174;6.368;2022-07-30T07:59:28;10.13;;;5.85;;
51838;SDS011;37886;53.174;6.368;2022-07-30T08:01:53;16.30;;;6.72;;
51838;SDS011;37886;53.174;6.368;2022-07-30T08:04:19;18.05;;;6.68;;
51838;SDS011;37886;53.174;6.368;2022-07-30T08:06:45;12.50;;;5.43;;
51838;SDS011;37886;53.174;6.368;2022-07-30T08:09:10;13.60;;;5.65;;
51838;SDS011;37886;53.174;6.368;2022-07-30T08:11:36;22.77;;;5.93;;
51838;SDS011;37886;53.174;6.368;2022-07-30T08:14:02;14.95;;;5.95;;
51838;SDS011;37886;53.174;6.368;2022-07-30T08:16:27;19.10;;;5.70;;
51838;SDS011;37886;53.174;6.368;2022-07-30T08:18:53;18.55;;;5.78;;
51838;SDS011;37886;53.174;6.368;2022-07-30T08:21:19;14.98;;;5.07;;
51838;SDS011;37886;53.174;6.368;2022-07-30T08:23:45;10.90;;;4.57;;
51838;SDS011;37886;53.174;6.368;2022-07-30T08:26:11;8.30;;;4.35;;
51838;SDS011;37886;53.174;6.368;2022-07-30T08:28:37;11.27;;;4.00;;
51838;SDS011;37886;53.174;6.368;2022-07-30T08:34:37;8.40;;;3.90;;
51838;SDS011;37886;53.174;6.368;2022-07-30T08:37:03;10.00;;;3.85;;
51838;SDS011;37886;53.174;6.368;2022-07-30T08:39:29;10.98;;;3.47;;
51838;SDS011;37886;53.174;6.368;2022-07-30T08:41:55;13.35;;;5.07;;
51838;SDS011;37886;53.174;6.368;2022-07-30T08:44:21;12.18;;;4.13;;
51838;SDS011;37886;53.174;6.368;2022-07-30T08:46:48;9.00;;;3.80;;
51838;SDS011;37886;53.174;6.368;2022-07-30T08:49:17;11.70;;;3.97;;
51838;SDS011;37886;53.174;6.368;2022-07-30T08:51:43;13.65;;;4.32;;
51838;SDS011;37886;53.174;6.368;2022-07-30T08:54:09;10.40;;;3.80;;
51838;SDS011;37886;53.174;6.368;2022-07-30T08:56:35;13.75;;;3.72;;
51838;SDS011;37886;53.174;6.368;2022-07-30T08:59:01;17.75;;;3.30;;
51838;SDS011;37886;53.174;6.368;2022-07-30T09:01:27;13.80;;;3.63;;
51838;SDS011;37886;53.174;6.368;2022-07-30T09:03:53;16.83;;;4.03;;
51838;SDS011;37886;53.174;6.368;2022-07-30T09:06:18;12.68;;;3.90;;
51838;SDS011;37886;53.174;6.368;2022-07-30T09:08:44;7.05;;;3.97;;
51838;SDS011;37886;53.174;6.368;2022-07-30T09:11:10;9.38;;;4.25;;
51838;SDS011;37886;53.174;6.368;2022-07-30T09:13:37;12.10;;;4.15;;
51838;SDS011;37886;53.174;6.368;2022-07-30T09:16:05;9.15;;;4.00;;
51838;SDS011;37886;53.174;6.368;2022-07-30T09:18:36;14.68;;;4.20;;
51838;SDS011;37886;53.174;6.368;2022-07-30T09:21:13;13.00;;;4.43;;
51838;SDS011;37886;53.174;6.368;2022-07-30T09:23:39;17.00;;;3.55;;
51838;SDS011;37886;53.174;6.368;2022-07-30T09:26:05;9.57;;;3.80;;
51838;SDS011;37886;53.174;6.368;2022-07-30T09:28:32;10.15;;;3.80;;
51838;SDS011;37886;53.174;6.368;2022-07-30T09:30:58;10.40;;;4.15;;
51838;SDS011;37886;53.174;6.368;2022-07-30T09:33:35;10.85;;;3.45;;
51838;SDS011;37886;53.174;6.368;2022-07-30T09:36:07;8.68;;;3.58;;
51838;SDS011;37886;53.174;6.368;2022-07-30T09:38:49;12.10;;;3.13;;
51838;SDS011;37886;53.174;6.368;2022-07-30T09:41:35;8.98;;;3.30;;
51838;SDS011;37886;53.174;6.368;2022-07-30T09:44:02;10.40;;;3.22;;
51838;SDS011;37886;53.174;6.368;2022-07-30T09:46:45;9.00;;;3.53;;
51838;SDS011;37886;53.174;6.368;2022-07-30T09:49:12;8.95;;;3.50;;
51838;SDS011;37886;53.174;6.368;2022-07-30T09:51:41;6.28;;;3.20;;
51838;SDS011;37886;53.174;6.368;2022-07-30T09:54:07;19.55;;;6.05;;
51838;SDS011;37886;53.174;6.368;2022-07-30T09:56:32;19.35;;;8.00;;
51838;SDS011;37886;53.174;6.368;2022-07-30T09:58:58;14.60;;;5.20;;
51838;SDS011;37886;53.174;6.368;2022-07-30T10:01:24;7.22;;;3.45;;
51838;SDS011;37886;53.174;6.368;2022-07-30T10:03:50;13.80;;;3.90;;
51838;SDS011;37886;53.174;6.368;2022-07-30T10:06:16;11.95;;;3.80;;
51838;SDS011;37886;53.174;6.368;2022-07-30T10:08:46;11.13;;;3.97;;
51838;SDS011;37886;53.174;6.368;2022-07-30T10:11:20;12.13;;;3.65;;
51838;SDS011;37886;53.174;6.368;2022-07-30T10:13:48;7.70;;;3.20;;
51838;SDS011;37886;53.174;6.368;2022-07-30T10:16:15;15.27;;;3.60;;
51838;SDS011;37886;53.174;6.368;2022-07-30T10:18:41;11.73;;;3.33;;
51838;SDS011;37886;53.174;6.368;2022-07-30T10:21:07;8.48;;;3.20;;
51838;SDS011;37886;53.174;6.368;2022-07-30T10:23:34;10.25;;;2.78;;
51838;SDS011;37886;53.174;6.368;2022-07-30T10:26:00;9.82;;;3.22;;
51838;SDS011;37886;53.174;6.368;2022-07-30T10:28:28;18.13;;;3.75;;
51838;SDS011;37886;53.174;6.368;2022-07-30T10:30:55;18.10;;;3.65;;
51838;SDS011;37886;53.174;6.368;2022-07-30T10:33:24;7.18;;;3.10;;
51838;SDS011;37886;53.174;6.368;2022-07-30T10:35:52;9.60;;;3.42;;
51838;SDS011;37886;53.174;6.368;2022-07-30T10:38:19;15.88;;;3.15;;
51838;SDS011;37886;53.174;6.368;2022-07-30T10:43:50;8.65;;;3.03;;
51838;SDS011;37886;53.174;6.368;2022-07-30T10:49:30;6.18;;;2.72;;
51838;SDS011;37886;53.174;6.368;2022-07-30T10:51:56;8.23;;;2.67;;
51838;SDS011;37886;53.174;6.368;2022-07-30T10:54:35;8.70;;;3.00;;
51838;SDS011;37886;53.174;6.368;2022-07-30T10:57:02;7.70;;;2.33;;
51838;SDS011;37886;53.174;6.368;2022-07-30T11:02:28;13.07;;;2.92;;
51838;SDS011;37886;53.174;6.368;2022-07-30T11:07:46;8.10;;;2.28;;
51838;SDS011;37886;53.174;6.368;2022-07-30T11:13:14;5.22;;;2.13;;
51838;SDS011;37886;53.174;6.368;2022-07-30T11:18:32;5.93;;;2.35;;
51838;SDS011;37886;53.174;6.368;2022-07-30T11:21:26;8.50;;;2.50;;
51838;SDS011;37886;53.174;6.368;2022-07-30T11:23:52;7.10;;;2.25;;
51838;SDS011;37886;53.174;6.368;2022-07-30T11:29:02;9.32;;;2.55;;
51838;SDS011;37886;53.174;6.368;2022-07-30T11:34:23;6.60;;;2.55;;
51838;SDS011;37886;53.174;6.368;2022-07-30T11:42:26;10.27;;;2.38;;
51838;SDS011;37886;53.174;6.368;2022-07-30T11:47:59;6.82;;;2.25;;
51838;SDS011;37886;53.174;6.368;2022-07-30T11:50:26;6.53;;;1.98;;
51838;SDS011;37886;53.174;6.368;2022-07-30T11:52:58;6.00;;;2.03;;
51838;SDS011;37886;53.174;6.368;2022-07-30T11:55:35;5.57;;;2.10;;
51838;SDS011;37886;53.174;6.368;2022-07-30T11:58:10;7.88;;;2.30;;
51838;SDS011;37886;53.174;6.368;2022-07-30T12:00:50;6.18;;;2.22;;
51838;SDS011;37886;53.174;6.368;2022-07-30T12:03:17;7.85;;;2.30;;
51838;SDS011;37886;53.174;6.368;2022-07-30T12:05:48;4.60;;;1.85;;
51838;SDS011;37886;53.174;6.368;2022-07-30T12:08:14;5.75;;;2.10;;
51838;SDS011;37886;53.174;6.368;2022-07-30T12:10:41;7.45;;;2.08;;
51838;SDS011;37886;53.174;6.368;2022-07-30T12:13:08;3.90;;;1.67;;
51838;SDS011;37886;53.174;6.368;2022-07-30T12:15:36;2.63;;;1.20;;
51838;SDS011;37886;53.174;6.368;2022-07-30T12:18:03;7.28;;;1.88;;
51838;SDS011;37886;53.174;6.368;2022-07-30T12:20:30;6.13;;;1.73;;
51838;SDS011;37886;53.174;6.368;2022-07-30T12:22:56;4.50;;;1.70;;
51838;SDS011;37886;53.174;6.368;2022-07-30T12:25:22;5.72;;;1.65;;
51838;SDS011;37886;53.174;6.368;2022-07-30T12:27:48;4.65;;;1.80;;
51838;SDS011;37886;53.174;6.368;2022-07-30T12:30:15;7.28;;;1.75;;
51838;SDS011;37886;53.174;6.368;2022-07-30T12:32:42;8.25;;;2.00;;
51838;SDS011;37886;53.174;6.368;2022-07-30T12:35:09;5.03;;;1.85;;
51838;SDS011;37886;53.174;6.368;2022-07-30T12:37:35;5.88;;;2.10;;
51838;SDS011;37886;53.174;6.368;2022-07-30T12:42:30;3.78;;;1.85;;
51838;SDS011;37886;53.174;6.368;2022-07-30T12:44:55;5.93;;;1.80;;
51838;SDS011;37886;53.174;6.368;2022-07-30T12:49:50;4.55;;;1.80;;
51838;SDS011;37886;53.174;6.368;2022-07-30T12:52:24;4.78;;;1.88;;
51838;SDS011;37886;53.174;6.368;2022-07-30T12:55:05;4.80;;;1.63;;
51838;SDS011;37886;53.174;6.368;2022-07-30T13:00:17;7.07;;;1.50;;
51838;SDS011;37886;53.174;6.368;2022-07-30T13:02:43;9.73;;;2.00;;
51838;SDS011;37886;53.174;6.368;2022-07-30T13:05:09;8.07;;;2.22;;
51838;SDS011;37886;53.174;6.368;2022-07-30T13:07:35;9.80;;;2.00;;
51838;SDS011;37886;53.174;6.368;2022-07-30T13:10:19;4.15;;;1.58;;
51838;SDS011;37886;53.174;6.368;2022-07-30T13:12:44;7.18;;;1.77;;
51838;SDS011;37886;53.174;6.368;2022-07-30T13:15:16;7.57;;;1.80;;
51838;SDS011;37886;53.174;6.368;2022-07-30T13:17:46;7.50;;;1.65;;
51838;SDS011;37886;53.174;6.368;2022-07-30T13:20:13;5.65;;;1.83;;
51838;SDS011;37886;53.174;6.368;2022-07-30T13:22:40;7.72;;;1.90;;
51838;SDS011;37886;53.174;6.368;2022-07-30T13:25:06;7.60;;;2.13;;
51838;SDS011;37886;53.174;6.368;2022-07-30T13:27:33;9.55;;;1.75;;
51838;SDS011;37886;53.174;6.368;2022-07-30T13:30:00;4.22;;;1.77;;
51838;SDS011;37886;53.174;6.368;2022-07-30T13:32:26;5.40;;;2.00;;
51838;SDS011;37886;53.174;6.368;2022-07-30T13:34:52;4.72;;;1.92;;
51838;SDS011;37886;53.174;6.368;2022-07-30T13:37:17;4.78;;;1.85;;
51838;SDS011;37886;53.174;6.368;2022-07-30T13:39:43;4.03;;;2.20;;
51838;SDS011;37886;53.174;6.368;2022-07-30T13:42:09;4.88;;;1.67;;
51838;SDS011;37886;53.174;6.368;2022-07-30T13:44:34;5.70;;;1.90;;
51838;SDS011;37886;53.174;6.368;2022-07-30T13:47:00;3.05;;;1.50;;
51838;SDS011;37886;53.174;6.368;2022-07-30T13:49:26;8.15;;;1.38;;
51838;SDS011;37886;53.174;6.368;2022-07-30T13:51:51;3.33;;;1.30;;
51838;SDS011;37886;53.174;6.368;2022-07-30T13:54:18;3.00;;;1.40;;
51838;SDS011;37886;53.174;6.368;2022-07-30T13:56:43;3.45;;;1.42;;
51838;SDS011;37886;53.174;6.368;2022-07-30T13:59:09;6.70;;;1.88;;
51838;SDS011;37886;53.174;6.368;2022-07-30T14:01:35;6.88;;;1.73;;
51838;SDS011;37886;53.174;6.368;2022-07-30T14:04:02;2.28;;;1.30;;
51838;SDS011;37886;53.174;6.368;2022-07-30T14:06:28;5.97;;;1.38;;
51838;SDS011;37886;53.174;6.368;2022-07-30T14:08:54;7.40;;;1.40;;
51838;SDS011;37886;53.174;6.368;2022-07-30T14:11:19;3.45;;;1.38;;
51838;SDS011;37886;53.174;6.368;2022-07-30T14:13:45;4.60;;;1.35;;
51838;SDS011;37886;53.174;6.368;2022-07-30T14:16:11;7.88;;;1.38;;
51838;SDS011;37886;53.174;6.368;2022-07-30T14:18:37;4.50;;;1.65;;
51838;SDS011;37886;53.174;6.368;2022-07-30T14:21:04;4.93;;;1.15;;
51838;SDS011;37886;53.174;6.368;2022-07-30T14:23:29;4.65;;;1.15;;
51838;SDS011;37886;53.174;6.368;2022-07-30T14:25:55;4.43;;;1.52;;
51838;SDS011;37886;53.174;6.368;2022-07-30T14:28:21;3.95;;;1.33;;
51838;SDS011;37886;53.174;6.368;2022-07-30T14:30:46;1.88;;;1.08;;
51838;SDS011;37886;53.174;6.368;2022-07-30T14:33:12;5.07;;;1.20;;
51838;SDS011;37886;53.174;6.368;2022-07-30T14:35:38;4.35;;;1.00;;
51838;SDS011;37886;53.174;6.368;2022-07-30T14:38:03;2.45;;;1.13;;
51838;SDS011;37886;53.174;6.368;2022-07-30T14:40:30;3.63;;;1.58;;
51838;SDS011;37886;53.174;6.368;2022-07-30T14:42:55;6.53;;;1.40;;
51838;SDS011;37886;53.174;6.368;2022-07-30T14:45:21;8.23;;;1.20;;
51838;SDS011;37886;53.174;6.368;2022-07-30T14:47:47;2.47;;;1.30;;
51838;SDS011;37886;53.174;6.368;2022-07-30T14:50:13;4.28;;;1.33;;
51838;SDS011;37886;53.174;6.368;2022-07-30T14:52:38;1.80;;;1.00;;
51838;SDS011;37886;53.174;6.368;2022-07-30T14:55:05;5.28;;;1.30;;
51838;SDS011;37886;53.174;6.368;2022-07-30T14:57:32;5.13;;;1.20;;
51838;SDS011;37886;53.174;6.368;2022-07-30T14:59:58;1.70;;;1.30;;
51838;SDS011;37886;53.174;6.368;2022-07-30T15:02:23;1.85;;;1.00;;
51838;SDS011;37886;53.174;6.368;2022-07-30T15:04:49;3.40;;;1.50;;
51838;SDS011;37886;53.174;6.368;2022-07-30T15:07:15;3.45;;;1.10;;
51838;SDS011;37886;53.174;6.368;2022-07-30T15:09:41;3.28;;;0.82;;
51838;SDS011;37886;53.174;6.368;2022-07-30T15:12:07;3.72;;;1.00;;
51838;SDS011;37886;53.174;6.368;2022-07-30T15:14:35;1.58;;;1.00;;
51838;SDS011;37886;53.174;6.368;2022-07-30T15:17:01;1.63;;;1.00;;
51838;SDS011;37886;53.174;6.368;2022-07-30T15:19:27;2.05;;;0.90;;
51838;SDS011;37886;53.174;6.368;2022-07-30T15:21:53;1.52;;;0.88;;
51838;SDS011;37886;53.174;6.368;2022-07-30T15:24:19;4.75;;;1.20;;
51838;SDS011;37886;53.174;6.368;2022-07-30T15:26:45;3.15;;;1.00;;
51838;SDS011;37886;53.174;6.368;2022-07-30T15:29:11;1.40;;;1.00;;
51838;SDS011;37886;53.174;6.368;2022-07-30T15:31:36;3.17;;;0.82;;